LEVD

Valladolid Airport

Airport
ICAO code
LEVD
IATA Code
VLL
Summary
ICAO Region
EUR
ICAO Territory
Location

, Castilla y Leon

Serving
Valladolid
Elevation
2776 ft
Coordinates
41° 42' 22" N , 4° 51' 7" W
Metar
LEVD 040830Z 22012KT 5000 -DZ BR BKN003 07/06 Q1014

Runways

Designator Length Width Surface Rops
15/33 907 60 GRE No/No
5/23 3000 60 ASP Yes/Yes

Airport map

Aerial View

SKYbrary Partners:

Safety knowledge contributed by: